Time;durP1;ratioP1;P1;durP2;ratioP2;P2;SDS_P1;SDS_P2;PMS_P1;PMS_P2;Temp;Humidity;BMP_temperature;BMP_pressure;BME280_temperature;BME280_humidity;BME280_pressure;Samples;Min_cycle;Max_cycle;Signal;HPM_P1;HPM_P2
2021/08/24 15:24:48;;;;;;;15.38;6.22;;;17.90;82.70;;;;;;5855468;23;20238;-86
2021/08/24 15:27:19;;;;;;;6.85;6.22;;;17.40;94.60;;;;;;5021640;28;20258;-84
2021/08/24 15:30:02;;;;;;;8.25;7.00;;;16.80;95.70;;;;;;5006354;28;20552;-87
2021/08/24 15:32:36;;;;;;;9.48;6.90;;;16.50;97.80;;;;;;5012624;28;20309;-87
2021/08/24 15:35:05;;;;;;;9.00;7.55;;;16.30;99.00;;;;;;5014505;28;20195;-88
2021/08/24 15:37:32;;;;;;;9.77;8.30;;;16.20;99.70;;;;;;5014246;28;20246;-87
2021/08/24 15:40:00;;;;;;;9.23;8.35;;;16.10;99.80;;;;;;5014384;28;20213;-87
2021/08/24 15:42:30;;;;;;;10.05;8.88;;;16.10;99.90;;;;;;5004271;28;20231;-87
2021/08/24 15:44:59;;;;;;;9.32;8.43;;;16.10;99.90;;;;;;5010222;28;20572;-87
2021/08/24 15:47:26;;;;;;;12.95;11.65;;;16.00;99.90;;;;;;5014607;28;20571;-86
2021/08/24 15:50:37;;;;;;;10.48;9.30;;;16.00;99.90;;;;;;5016030;28;20191;-89
2021/08/24 15:53:04;;;;;;;10.38;9.38;;;16.10;99.90;;;;;;5014098;28;20646;-87
2021/08/24 15:59:06;;;;;;;10.23;9.10;;;15.90;99.70;;;;;;5013821;28;20245;-88
2021/08/24 16:01:35;;;;;;;10.13;9.05;;;15.90;99.80;;;;;;5013631;28;20203;-87
2021/08/24 16:04:02;;;;;;;9.90;9.00;;;15.90;99.40;;;;;;5014504;28;20203;-87
2021/08/24 16:06:29;;;;;;;10.60;9.50;;;15.70;99.00;;;;;;5014336;28;20293;-87
2021/08/24 16:08:56;;;;;;;10.80;9.70;;;15.70;99.10;;;;;;5014205;28;20697;-89
2021/08/24 16:11:29;;;;;;;11.38;10.27;;;15.60;99.40;;;;;;5012702;28;20199;-87
2021/08/24 16:13:56;;;;;;;10.57;9.57;;;15.70;99.30;;;;;;5026822;28;20230;-87
2021/08/24 16:16:25;;;;;;;10.07;9.25;;;15.70;99.40;;;;;;5014702;28;20195;-89
2021/08/24 16:18:55;;;;;;;10.52;9.63;;;15.60;98.70;;;;;;5011961;28;20313;-90
2021/08/24 16:21:24;;;;;;;11.02;10.02;;;15.60;99.20;;;;;;5012999;28;20654;-88
2021/08/24 16:23:51;;;;;;;11.13;10.02;;;15.50;99.60;;;;;;5003222;28;20588;-88
2021/08/24 16:26:18;;;;;;;10.90;9.88;;;15.50;98.80;;;;;;5011924;28;20223;-87
2021/08/24 16:28:45;;;;;;;10.50;9.60;;;15.50;99.30;;;;;;5017250;28;20231;-87
2021/08/24 16:31:13;;;;;;;13.27;9.48;;;15.50;98.70;;;;;;5016055;28;20195;-87
2021/08/24 16:33:40;;;;;;;10.95;10.05;;;15.50;98.40;;;;;;5013211;28;20270;-87
2021/08/24 16:36:09;;;;;;;10.52;9.63;;;15.50;98.60;;;;;;5014096;28;20206;-87
2021/08/24 16:38:37;;;;;;;11.55;10.35;;;15.40;99.00;;;;;;5000376;28;20235;-87
2021/08/24 16:41:06;;;;;;;10.88;9.88;;;15.30;99.00;;;;;;5013802;28;20203;-89
2021/08/24 16:43:35;;;;;;;11.45;10.32;;;15.30;98.70;;;;;;5014965;28;20583;-86
2021/08/24 16:46:03;;;;;;;11.18;9.98;;;15.30;98.80;;;;;;5016099;28;20221;-88
2021/08/24 16:48:30;;;;;;;12.23;10.45;;;15.20;99.30;;;;;;5014458;28;20235;-87
2021/08/24 16:50:57;;;;;;;10.82;9.93;;;15.20;99.50;;;;;;5016351;28;20298;-89
2021/08/24 16:53:25;;;;;;;10.57;9.63;;;15.30;99.40;;;;;;5016458;28;20728;-87
2021/08/24 16:55:53;;;;;;;10.77;9.68;;;15.30;98.70;;;;;;5017264;28;20209;-87
2021/08/24 16:58:20;;;;;;;11.50;10.10;;;15.20;98.90;;;;;;5010527;28;20295;-88
2021/08/24 17:00:47;;;;;;;10.93;9.93;;;15.20;99.00;;;;;;5003774;28;20200;-88
2021/08/24 17:03:14;;;;;;;11.02;9.77;;;15.20;99.50;;;;;;5005232;28;20228;-89
2021/08/24 17:05:41;;;;;;;10.70;9.70;;;15.20;99.60;;;;;;5012982;28;20286;-89
2021/08/24 17:08:08;;;;;;;10.48;9.38;;;15.10;99.60;;;;;;5012431;28;20306;-88
2021/08/24 17:10:37;;;;;;;10.60;9.18;;;15.00;99.90;;;;;;5012740;28;20721;-88
2021/08/24 17:13:04;;;;;;;9.73;8.93;;;15.10;99.40;;;;;;5024375;28;20330;-89
2021/08/24 17:15:34;;;;;;;9.85;8.90;;;15.20;99.10;;;;;;5033270;28;20314;-88
2021/08/24 17:18:01;;;;;;;9.88;8.98;;;15.20;99.20;;;;;;5013613;28;20271;-88
2021/08/24 17:20:29;;;;;;;17.35;15.55;;;15.10;99.20;;;;;;5013457;28;20286;-88
2021/08/24 17:22:58;;;;;;;11.70;10.60;;;15.20;99.50;;;;;;5014710;28;20192;-88
2021/08/24 17:25:32;;;;;;;9.02;8.15;;;15.30;99.70;;;;;;5016655;28;20384;-88
2021/08/24 17:28:01;;;;;;;9.10;8.30;;;15.20;98.80;;;;;;5016691;28;20198;-88
2021/08/24 17:30:28;;;;;;;9.07;8.15;;;15.10;99.30;;;;;;5021990;28;20233;-88
2021/08/24 17:32:55;;;;;;;7.85;7.15;;;15.10;99.10;;;;;;5020329;28;20241;-88
2021/08/24 17:35:24;;;;;;;7.20;6.57;;;15.10;98.50;;;;;;5022794;28;20199;-86
2021/08/24 17:37:51;;;;;;;7.18;6.47;;;15.10;98.30;;;;;;5015348;28;20262;-86
2021/08/24 17:40:18;;;;;;;8.55;7.57;;;15.20;98.10;;;;;;5015823;28;20202;-87
2021/08/24 17:42:45;;;;;;;6.47;5.88;;;15.20;97.90;;;;;;5019955;28;20306;-88
2021/08/24 17:45:16;;;;;;;8.35;7.55;;;15.20;98.40;;;;;;5015829;28;20199;-87
2021/08/24 17:47:47;;;;;;;7.35;5.40;;;15.30;97.70;;;;;;5015586;28;20324;-88
2021/08/24 17:50:24;;;;;;;6.18;5.57;;;15.30;97.00;;;;;;5015571;28;20597;-88
2021/08/24 17:52:51;;;;;;;6.57;5.10;;;15.30;96.60;;;;;;5015345;28;20251;-89
2021/08/24 17:55:19;;;;;;;5.30;4.70;;;15.30;95.00;;;;;;5015442;28;20613;-88
2021/08/24 17:57:46;;;;;;;5.40;4.90;;;15.40;95.90;;;;;;5015534;28;20725;-87
2021/08/24 18:00:16;;;;;;;4.65;4.25;;;15.30;94.70;;;;;;5016212;28;20286;-88
2021/08/24 18:02:43;;;;;;;5.38;4.88;;;15.40;94.40;;;;;;5015163;28;20235;-88
2021/08/24 18:05:18;;;;;;;5.43;4.93;;;15.30;94.60;;;;;;5015756;28;20548;-88
2021/08/24 18:07:45;;;;;;;5.15;4.65;;;15.30;95.40;;;;;;5015063;28;20341;-88
2021/08/24 18:10:12;;;;;;;4.78;4.38;;;15.30;94.80;;;;;;5016071;28;20230;-87
2021/08/24 18:12:39;;;;;;;6.35;4.68;;;15.40;95.50;;;;;;5015451;28;20314;-87
2021/08/24 18:15:07;;;;;;;5.95;4.72;;;15.30;95.00;;;;;;5015697;28;20226;-87
2021/08/24 18:17:35;;;;;;;13.65;12.30;;;15.30;95.60;;;;;;5015388;28;20238;-88
2021/08/24 18:20:02;;;;;;;5.93;5.38;;;15.40;95.90;;;;;;5015719;28;20192;-87
2021/08/24 18:22:42;;;;;;;7.55;4.70;;;15.50;97.00;;;;;;5015001;28;20237;-88
2021/08/24 18:28:56;;;;;;;12.57;7.35;;;15.40;96.50;;;;;;4996465;28;20227;-87
2021/08/24 18:31:32;;;;;;;6.85;6.22;;;15.40;97.00;;;;;;4996722;28;20275;-87
